sensor_id;sensor_type;location;lat;lon;timestamp;P1;durP1;ratioP1;P2;durP2;ratioP2
14817;SDS011;7500;57.698;11.986;2023-01-25T00:00:05;27.30;;;9.73;;
14817;SDS011;7500;57.698;11.986;2023-01-25T00:02:33;27.33;;;10.13;;
14817;SDS011;7500;57.698;11.986;2023-01-25T00:05:00;27.27;;;10.13;;
14817;SDS011;7500;57.698;11.986;2023-01-25T00:07:27;20.33;;;9.40;;
14817;SDS011;7500;57.698;11.986;2023-01-25T00:09:54;24.53;;;9.50;;
14817;SDS011;7500;57.698;11.986;2023-01-25T00:12:22;24.20;;;9.93;;
14817;SDS011;7500;57.698;11.986;2023-01-25T00:14:49;25.20;;;9.67;;
14817;SDS011;7500;57.698;11.986;2023-01-25T00:17:16;21.50;;;9.10;;
14817;SDS011;7500;57.698;11.986;2023-01-25T00:19:42;23.60;;;10.00;;
14817;SDS011;7500;57.698;11.986;2023-01-25T00:22:09;30.43;;;9.73;;
14817;SDS011;7500;57.698;11.986;2023-01-25T00:24:36;31.37;;;10.10;;
14817;SDS011;7500;57.698;11.986;2023-01-25T00:27:03;29.73;;;9.63;;
14817;SDS011;7500;57.698;11.986;2023-01-25T00:29:31;35.37;;;10.37;;
14817;SDS011;7500;57.698;11.986;2023-01-25T00:32:01;30.60;;;10.30;;
14817;SDS011;7500;57.698;11.986;2023-01-25T00:34:51;35.17;;;11.00;;
14817;SDS011;7500;57.698;11.986;2023-01-25T00:37:19;27.57;;;10.30;;
14817;SDS011;7500;57.698;11.986;2023-01-25T00:39:49;26.80;;;10.83;;
14817;SDS011;7500;57.698;11.986;2023-01-25T00:42:17;34.33;;;11.83;;
14817;SDS011;7500;57.698;11.986;2023-01-25T00:44:46;36.33;;;11.97;;
14817;SDS011;7500;57.698;11.986;2023-01-25T00:47:13;44.27;;;12.00;;
14817;SDS011;7500;57.698;11.986;2023-01-25T00:49:41;37.27;;;11.87;;
14817;SDS011;7500;57.698;11.986;2023-01-25T00:52:09;33.80;;;12.47;;
14817;SDS011;7500;57.698;11.986;2023-01-25T00:54:37;38.67;;;12.10;;
14817;SDS011;7500;57.698;11.986;2023-01-25T00:57:04;34.70;;;11.90;;
14817;SDS011;7500;57.698;11.986;2023-01-25T00:59:31;37.70;;;12.70;;
14817;SDS011;7500;57.698;11.986;2023-01-25T01:02:00;30.23;;;12.03;;
14817;SDS011;7500;57.698;11.986;2023-01-25T01:04:27;42.53;;;13.07;;
14817;SDS011;7500;57.698;11.986;2023-01-25T01:06:54;38.00;;;13.40;;
14817;SDS011;7500;57.698;11.986;2023-01-25T01:09:21;45.87;;;13.67;;
14817;SDS011;7500;57.698;11.986;2023-01-25T01:11:49;45.90;;;13.90;;
14817;SDS011;7500;57.698;11.986;2023-01-25T01:14:16;43.93;;;13.10;;
14817;SDS011;7500;57.698;11.986;2023-01-25T01:16:43;45.87;;;14.27;;
14817;SDS011;7500;57.698;11.986;2023-01-25T01:19:11;43.83;;;13.23;;
14817;SDS011;7500;57.698;11.986;2023-01-25T01:21:38;46.87;;;13.00;;
14817;SDS011;7500;57.698;11.986;2023-01-25T01:24:05;30.23;;;12.13;;
14817;SDS011;7500;57.698;11.986;2023-01-25T01:26:32;48.67;;;14.93;;
14817;SDS011;7500;57.698;11.986;2023-01-25T01:28:59;42.63;;;14.40;;
14817;SDS011;7500;57.698;11.986;2023-01-25T01:31:26;43.47;;;14.87;;
14817;SDS011;7500;57.698;11.986;2023-01-25T01:33:54;50.10;;;15.23;;
14817;SDS011;7500;57.698;11.986;2023-01-25T01:36:24;40.00;;;12.90;;
14817;SDS011;7500;57.698;11.986;2023-01-25T01:38:52;41.67;;;14.83;;
14817;SDS011;7500;57.698;11.986;2023-01-25T01:41:19;47.47;;;14.07;;
14817;SDS011;7500;57.698;11.986;2023-01-25T01:43:46;56.90;;;15.00;;
14817;SDS011;7500;57.698;11.986;2023-01-25T01:46:14;39.67;;;12.50;;
14817;SDS011;7500;57.698;11.986;2023-01-25T01:48:47;42.77;;;15.27;;
14817;SDS011;7500;57.698;11.986;2023-01-25T01:51:19;50.13;;;15.00;;
14817;SDS011;7500;57.698;11.986;2023-01-25T01:53:51;34.53;;;13.47;;
14817;SDS011;7500;57.698;11.986;2023-01-25T01:56:22;35.23;;;13.27;;
14817;SDS011;7500;57.698;11.986;2023-01-25T01:58:53;41.03;;;14.63;;
14817;SDS011;7500;57.698;11.986;2023-01-25T02:01:24;27.43;;;12.50;;
14817;SDS011;7500;57.698;11.986;2023-01-25T02:03:51;37.13;;;13.60;;
14817;SDS011;7500;57.698;11.986;2023-01-25T02:06:20;41.73;;;15.00;;
14817;SDS011;7500;57.698;11.986;2023-01-25T02:08:55;40.90;;;14.17;;
14817;SDS011;7500;57.698;11.986;2023-01-25T02:11:22;48.27;;;14.77;;
14817;SDS011;7500;57.698;11.986;2023-01-25T02:13:52;39.77;;;15.17;;
14817;SDS011;7500;57.698;11.986;2023-01-25T02:16:23;39.80;;;15.30;;
14817;SDS011;7500;57.698;11.986;2023-01-25T02:18:52;53.60;;;14.60;;
14817;SDS011;7500;57.698;11.986;2023-01-25T02:21:22;40.10;;;15.20;;
14817;SDS011;7500;57.698;11.986;2023-01-25T02:23:50;41.60;;;14.93;;
14817;SDS011;7500;57.698;11.986;2023-01-25T02:26:23;50.17;;;15.47;;
14817;SDS011;7500;57.698;11.986;2023-01-25T02:28:51;41.13;;;14.90;;
14817;SDS011;7500;57.698;11.986;2023-01-25T02:31:22;54.00;;;16.27;;
14817;SDS011;7500;57.698;11.986;2023-01-25T02:33:49;50.73;;;16.07;;
14817;SDS011;7500;57.698;11.986;2023-01-25T02:36:18;38.47;;;14.47;;
14817;SDS011;7500;57.698;11.986;2023-01-25T02:38:50;39.73;;;14.47;;
14817;SDS011;7500;57.698;11.986;2023-01-25T02:41:26;43.93;;;15.23;;
14817;SDS011;7500;57.698;11.986;2023-01-25T02:43:57;45.00;;;15.90;;
14817;SDS011;7500;57.698;11.986;2023-01-25T02:46:26;41.30;;;14.57;;
14817;SDS011;7500;57.698;11.986;2023-01-25T02:48:55;38.43;;;14.43;;
14817;SDS011;7500;57.698;11.986;2023-01-25T02:51:24;50.40;;;15.03;;
14817;SDS011;7500;57.698;11.986;2023-01-25T02:53:52;35.00;;;14.37;;
14817;SDS011;7500;57.698;11.986;2023-01-25T02:56:20;39.97;;;15.03;;
14817;SDS011;7500;57.698;11.986;2023-01-25T02:58:48;40.23;;;14.70;;
14817;SDS011;7500;57.698;11.986;2023-01-25T03:01:15;45.27;;;15.50;;
14817;SDS011;7500;57.698;11.986;2023-01-25T03:03:42;42.73;;;14.73;;
14817;SDS011;7500;57.698;11.986;2023-01-25T03:06:09;37.87;;;13.13;;
14817;SDS011;7500;57.698;11.986;2023-01-25T03:08:36;43.43;;;15.20;;
14817;SDS011;7500;57.698;11.986;2023-01-25T03:11:05;36.50;;;14.20;;
14817;SDS011;7500;57.698;11.986;2023-01-25T03:13:32;40.40;;;14.90;;
14817;SDS011;7500;57.698;11.986;2023-01-25T03:16:02;33.70;;;14.80;;
14817;SDS011;7500;57.698;11.986;2023-01-25T03:18:31;41.30;;;15.37;;
14817;SDS011;7500;57.698;11.986;2023-01-25T03:21:02;34.13;;;13.43;;
14817;SDS011;7500;57.698;11.986;2023-01-25T03:23:30;36.33;;;13.37;;
14817;SDS011;7500;57.698;11.986;2023-01-25T03:26:03;34.00;;;13.80;;
14817;SDS011;7500;57.698;11.986;2023-01-25T03:28:31;34.23;;;15.13;;
14817;SDS011;7500;57.698;11.986;2023-01-25T03:30:58;35.80;;;13.83;;
14817;SDS011;7500;57.698;11.986;2023-01-25T03:33:26;35.03;;;13.70;;
14817;SDS011;7500;57.698;11.986;2023-01-25T03:35:54;34.50;;;13.83;;
14817;SDS011;7500;57.698;11.986;2023-01-25T03:38:21;35.77;;;13.33;;
14817;SDS011;7500;57.698;11.986;2023-01-25T03:40:48;33.03;;;13.00;;
14817;SDS011;7500;57.698;11.986;2023-01-25T03:43:15;29.27;;;12.40;;
14817;SDS011;7500;57.698;11.986;2023-01-25T03:45:42;32.03;;;12.83;;
14817;SDS011;7500;57.698;11.986;2023-01-25T03:48:09;31.07;;;12.40;;
14817;SDS011;7500;57.698;11.986;2023-01-25T03:50:37;40.17;;;12.17;;
14817;SDS011;7500;57.698;11.986;2023-01-25T03:53:04;36.03;;;13.93;;
14817;SDS011;7500;57.698;11.986;2023-01-25T03:55:38;32.10;;;14.07;;
14817;SDS011;7500;57.698;11.986;2023-01-25T03:58:05;36.43;;;12.20;;
14817;SDS011;7500;57.698;11.986;2023-01-25T04:00:32;34.13;;;11.10;;
14817;SDS011;7500;57.698;11.986;2023-01-25T04:02:59;29.43;;;8.97;;
14817;SDS011;7500;57.698;11.986;2023-01-25T04:05:26;35.97;;;12.40;;
14817;SDS011;7500;57.698;11.986;2023-01-25T04:07:54;33.50;;;13.07;;
14817;SDS011;7500;57.698;11.986;2023-01-25T04:10:21;34.57;;;13.87;;
14817;SDS011;7500;57.698;11.986;2023-01-25T04:12:48;33.57;;;13.67;;
14817;SDS011;7500;57.698;11.986;2023-01-25T04:15:15;37.30;;;14.00;;
14817;SDS011;7500;57.698;11.986;2023-01-25T04:17:41;36.07;;;14.03;;
14817;SDS011;7500;57.698;11.986;2023-01-25T04:20:09;31.23;;;13.80;;
14817;SDS011;7500;57.698;11.986;2023-01-25T04:22:36;34.43;;;13.07;;
14817;SDS011;7500;57.698;11.986;2023-01-25T04:25:05;35.80;;;13.57;;
14817;SDS011;7500;57.698;11.986;2023-01-25T04:27:33;32.90;;;12.67;;
14817;SDS011;7500;57.698;11.986;2023-01-25T04:29:59;31.53;;;12.93;;
14817;SDS011;7500;57.698;11.986;2023-01-25T04:32:26;35.40;;;13.53;;
14817;SDS011;7500;57.698;11.986;2023-01-25T04:34:53;33.80;;;13.07;;
14817;SDS011;7500;57.698;11.986;2023-01-25T04:37:20;32.47;;;11.33;;
14817;SDS011;7500;57.698;11.986;2023-01-25T04:39:47;35.33;;;13.23;;
14817;SDS011;7500;57.698;11.986;2023-01-25T04:42:15;35.47;;;13.07;;
14817;SDS011;7500;57.698;11.986;2023-01-25T04:44:42;26.93;;;11.40;;
14817;SDS011;7500;57.698;11.986;2023-01-25T04:47:09;29.73;;;12.53;;
14817;SDS011;7500;57.698;11.986;2023-01-25T04:49:36;29.37;;;12.77;;
14817;SDS011;7500;57.698;11.986;2023-01-25T04:52:03;37.93;;;13.87;;
14817;SDS011;7500;57.698;11.986;2023-01-25T04:54:30;31.13;;;13.13;;
14817;SDS011;7500;57.698;11.986;2023-01-25T04:56:56;24.70;;;12.97;;
14817;SDS011;7500;57.698;11.986;2023-01-25T04:59:25;36.77;;;14.97;;
14817;SDS011;7500;57.698;11.986;2023-01-25T05:01:51;40.03;;;14.20;;
14817;SDS011;7500;57.698;11.986;2023-01-25T05:04:18;38.70;;;13.93;;
14817;SDS011;7500;57.698;11.986;2023-01-25T05:06:45;30.73;;;12.70;;
14817;SDS011;7500;57.698;11.986;2023-01-25T05:09:12;38.03;;;13.33;;
14817;SDS011;7500;57.698;11.986;2023-01-25T05:11:40;36.47;;;13.33;;
14817;SDS011;7500;57.698;11.986;2023-01-25T05:14:07;29.30;;;13.07;;
14817;SDS011;7500;57.698;11.986;2023-01-25T05:16:35;28.43;;;12.13;;
14817;SDS011;7500;57.698;11.986;2023-01-25T05:19:02;25.07;;;11.60;;
14817;SDS011;7500;57.698;11.986;2023-01-25T05:21:29;24.67;;;11.73;;
14817;SDS011;7500;57.698;11.986;2023-01-25T05:24:13;31.93;;;12.13;;
14817;SDS011;7500;57.698;11.986;2023-01-25T05:26:40;30.73;;;11.80;;
14817;SDS011;7500;57.698;11.986;2023-01-25T05:29:24;26.00;;;12.40;;
14817;SDS011;7500;57.698;11.986;2023-01-25T05:31:53;26.27;;;10.97;;
14817;SDS011;7500;57.698;11.986;2023-01-25T05:34:21;26.53;;;11.37;;
14817;SDS011;7500;57.698;11.986;2023-01-25T05:36:48;26.53;;;11.30;;
14817;SDS011;7500;57.698;11.986;2023-01-25T05:39:15;24.63;;;12.23;;
14817;SDS011;7500;57.698;11.986;2023-01-25T05:41:42;27.07;;;11.13;;
14817;SDS011;7500;57.698;11.986;2023-01-25T05:44:09;26.87;;;12.87;;
14817;SDS011;7500;57.698;11.986;2023-01-25T05:46:36;29.53;;;13.07;;
14817;SDS011;7500;57.698;11.986;2023-01-25T05:49:04;29.63;;;12.23;;
14817;SDS011;7500;57.698;11.986;2023-01-25T05:51:32;28.47;;;12.93;;
14817;SDS011;7500;57.698;11.986;2023-01-25T05:53:59;30.83;;;14.17;;
14817;SDS011;7500;57.698;11.986;2023-01-25T05:56:27;32.67;;;13.27;;
14817;SDS011;7500;57.698;11.986;2023-01-25T05:58:54;31.53;;;13.80;;
14817;SDS011;7500;57.698;11.986;2023-01-25T06:01:22;32.87;;;14.43;;
14817;SDS011;7500;57.698;11.986;2023-01-25T06:03:49;29.33;;;13.47;;
14817;SDS011;7500;57.698;11.986;2023-01-25T06:06:18;26.77;;;12.47;;
14817;SDS011;7500;57.698;11.986;2023-01-25T06:08:45;37.07;;;16.03;;
14817;SDS011;7500;57.698;11.986;2023-01-25T06:11:13;39.43;;;15.13;;
14817;SDS011;7500;57.698;11.986;2023-01-25T06:13:42;33.43;;;15.43;;
14817;SDS011;7500;57.698;11.986;2023-01-25T06:16:09;36.43;;;14.47;;
14817;SDS011;7500;57.698;11.986;2023-01-25T06:18:37;31.67;;;13.83;;
14817;SDS011;7500;57.698;11.986;2023-01-25T06:21:04;36.70;;;14.93;;
14817;SDS011;7500;57.698;11.986;2023-01-25T06:23:33;41.93;;;14.33;;
14817;SDS011;7500;57.698;11.986;2023-01-25T06:26:00;32.37;;;15.70;;
14817;SDS011;7500;57.698;11.986;2023-01-25T06:28:28;29.30;;;12.60;;
14817;SDS011;7500;57.698;11.986;2023-01-25T06:31:02;42.83;;;15.20;;
14817;SDS011;7500;57.698;11.986;2023-01-25T06:33:30;31.20;;;14.63;;
14817;SDS011;7500;57.698;11.986;2023-01-25T06:36:01;36.20;;;15.93;;
14817;SDS011;7500;57.698;11.986;2023-01-25T06:38:29;30.47;;;14.63;;
14817;SDS011;7500;57.698;11.986;2023-01-25T06:41:01;35.93;;;16.90;;
14817;SDS011;7500;57.698;11.986;2023-01-25T06:43:31;33.33;;;15.57;;
14817;SDS011;7500;57.698;11.986;2023-01-25T06:45:59;34.07;;;13.70;;
14817;SDS011;7500;57.698;11.986;2023-01-25T06:48:27;32.67;;;14.27;;
14817;SDS011;7500;57.698;11.986;2023-01-25T06:50:55;36.13;;;15.80;;
14817;SDS011;7500;57.698;11.986;2023-01-25T06:53:23;35.67;;;15.10;;
14817;SDS011;7500;57.698;11.986;2023-01-25T06:55:58;32.80;;;14.87;;
14817;SDS011;7500;57.698;11.986;2023-01-25T06:58:27;27.80;;;13.20;;
14817;SDS011;7500;57.698;11.986;2023-01-25T07:00:58;36.03;;;14.93;;
14817;SDS011;7500;57.698;11.986;2023-01-25T07:03:26;33.43;;;15.93;;
14817;SDS011;7500;57.698;11.986;2023-01-25T07:05:56;27.80;;;14.07;;
14817;SDS011;7500;57.698;11.986;2023-01-25T07:08:23;36.43;;;15.87;;
14817;SDS011;7500;57.698;11.986;2023-01-25T07:10:53;25.83;;;13.73;;
14817;SDS011;7500;57.698;11.986;2023-01-25T07:13:21;25.73;;;12.27;;
14817;SDS011;7500;57.698;11.986;2023-01-25T07:15:54;28.20;;;14.13;;
14817;SDS011;7500;57.698;11.986;2023-01-25T07:18:21;32.93;;;15.00;;
14817;SDS011;7500;57.698;11.986;2023-01-25T07:20:48;31.63;;;14.70;;
14817;SDS011;7500;57.698;11.986;2023-01-25T07:23:15;26.67;;;12.60;;
14817;SDS011;7500;57.698;11.986;2023-01-25T07:25:43;27.43;;;13.40;;
14817;SDS011;7500;57.698;11.986;2023-01-25T07:28:10;30.47;;;14.00;;
14817;SDS011;7500;57.698;11.986;2023-01-25T07:30:37;32.97;;;14.37;;
14817;SDS011;7500;57.698;11.986;2023-01-25T07:33:07;33.07;;;13.37;;
14817;SDS011;7500;57.698;11.986;2023-01-25T07:35:34;28.30;;;13.70;;
14817;SDS011;7500;57.698;11.986;2023-01-25T07:38:01;27.67;;;13.67;;
14817;SDS011;7500;57.698;11.986;2023-01-25T07:40:28;31.47;;;14.30;;
14817;SDS011;7500;57.698;11.986;2023-01-25T07:42:56;28.00;;;14.30;;
14817;SDS011;7500;57.698;11.986;2023-01-25T07:45:23;26.90;;;13.70;;
14817;SDS011;7500;57.698;11.986;2023-01-25T07:47:54;25.90;;;12.57;;
14817;SDS011;7500;57.698;11.986;2023-01-25T07:50:23;24.57;;;12.90;;
14817;SDS011;7500;57.698;11.986;2023-01-25T07:52:50;26.80;;;12.77;;
14817;SDS011;7500;57.698;11.986;2023-01-25T07:55:17;26.17;;;14.13;;
14817;SDS011;7500;57.698;11.986;2023-01-25T07:57:44;28.53;;;13.03;;
14817;SDS011;7500;57.698;11.986;2023-01-25T08:00:11;28.60;;;13.40;;
14817;SDS011;7500;57.698;11.986;2023-01-25T08:02:39;27.93;;;13.07;;
14817;SDS011;7500;57.698;11.986;2023-01-25T08:05:06;27.80;;;14.03;;
14817;SDS011;7500;57.698;11.986;2023-01-25T08:07:35;25.67;;;11.87;;
14817;SDS011;7500;57.698;11.986;2023-01-25T08:10:02;24.17;;;12.00;;
14817;SDS011;7500;57.698;11.986;2023-01-25T08:12:31;22.53;;;12.90;;
14817;SDS011;7500;57.698;11.986;2023-01-25T08:14:58;27.00;;;12.37;;
14817;SDS011;7500;57.698;11.986;2023-01-25T08:17:25;20.97;;;10.73;;
14817;SDS011;7500;57.698;11.986;2023-01-25T08:19:56;24.70;;;13.47;;
14817;SDS011;7500;57.698;11.986;2023-01-25T08:22:23;29.07;;;13.87;;
14817;SDS011;7500;57.698;11.986;2023-01-25T08:24:52;30.93;;;14.80;;
14817;SDS011;7500;57.698;11.986;2023-01-25T08:27:19;31.00;;;16.50;;
14817;SDS011;7500;57.698;11.986;2023-01-25T08:29:46;35.47;;;15.80;;
14817;SDS011;7500;57.698;11.986;2023-01-25T08:32:14;34.13;;;16.07;;
14817;SDS011;7500;57.698;11.986;2023-01-25T08:34:41;31.67;;;15.30;;
14817;SDS011;7500;57.698;11.986;2023-01-25T08:37:08;28.83;;;15.50;;
14817;SDS011;7500;57.698;11.986;2023-01-25T08:39:35;36.93;;;17.10;;
14817;SDS011;7500;57.698;11.986;2023-01-25T08:42:03;31.03;;;14.57;;
14817;SDS011;7500;57.698;11.986;2023-01-25T08:44:31;32.47;;;14.13;;
14817;SDS011;7500;57.698;11.986;2023-01-25T08:46:58;36.17;;;16.57;;
14817;SDS011;7500;57.698;11.986;2023-01-25T08:49:25;35.37;;;16.77;;
14817;SDS011;7500;57.698;11.986;2023-01-25T08:51:52;33.70;;;15.73;;
14817;SDS011;7500;57.698;11.986;2023-01-25T08:54:19;32.80;;;15.53;;
14817;SDS011;7500;57.698;11.986;2023-01-25T08:56:46;27.37;;;16.23;;
14817;SDS011;7500;57.698;11.986;2023-01-25T08:59:14;37.90;;;16.10;;
14817;SDS011;7500;57.698;11.986;2023-01-25T09:01:41;24.70;;;11.37;;
14817;SDS011;7500;57.698;11.986;2023-01-25T09:04:08;32.47;;;14.10;;
14817;SDS011;7500;57.698;11.986;2023-01-25T09:06:34;28.73;;;14.30;;
14817;SDS011;7500;57.698;11.986;2023-01-25T09:09:02;29.40;;;12.83;;
14817;SDS011;7500;57.698;11.986;2023-01-25T09:11:29;30.50;;;14.30;;
14817;SDS011;7500;57.698;11.986;2023-01-25T09:13:59;31.53;;;15.00;;
14817;SDS011;7500;57.698;11.986;2023-01-25T09:16:27;31.90;;;15.03;;
14817;SDS011;7500;57.698;11.986;2023-01-25T09:18:55;34.13;;;14.67;;
14817;SDS011;7500;57.698;11.986;2023-01-25T09:21:22;31.93;;;15.30;;
14817;SDS011;7500;57.698;11.986;2023-01-25T09:23:49;27.37;;;13.57;;
14817;SDS011;7500;57.698;11.986;2023-01-25T09:26:18;28.33;;;14.83;;
14817;SDS011;7500;57.698;11.986;2023-01-25T09:28:46;29.27;;;12.97;;
14817;SDS011;7500;57.698;11.986;2023-01-25T09:31:14;34.67;;;15.03;;
14817;SDS011;7500;57.698;11.986;2023-01-25T09:33:43;35.13;;;13.93;;
14817;SDS011;7500;57.698;11.986;2023-01-25T09:36:10;26.37;;;14.37;;
14817;SDS011;7500;57.698;11.986;2023-01-25T09:38:37;30.93;;;15.17;;
14817;SDS011;7500;57.698;11.986;2023-01-25T09:41:09;29.57;;;14.47;;
14817;SDS011;7500;57.698;11.986;2023-01-25T09:43:49;36.63;;;14.70;;
14817;SDS011;7500;57.698;11.986;2023-01-25T09:46:36;35.10;;;16.07;;
14817;SDS011;7500;57.698;11.986;2023-01-25T09:49:11;28.13;;;13.60;;
14817;SDS011;7500;57.698;11.986;2023-01-25T09:51:58;26.53;;;13.10;;
14817;SDS011;7500;57.698;11.986;2023-01-25T09:54:38;29.57;;;13.47;;
14817;SDS011;7500;57.698;11.986;2023-01-25T09:57:08;34.17;;;13.40;;
14817;SDS011;7500;57.698;11.986;2023-01-25T09:59:41;30.90;;;13.90;;
14817;SDS011;7500;57.698;11.986;2023-01-25T10:02:15;26.73;;;13.90;;
14817;SDS011;7500;57.698;11.986;2023-01-25T10:04:52;33.80;;;14.30;;
14817;SDS011;7500;57.698;11.986;2023-01-25T10:07:24;30.17;;;15.00;;
14817;SDS011;7500;57.698;11.986;2023-01-25T10:09:56;33.83;;;14.47;;
14817;SDS011;7500;57.698;11.986;2023-01-25T10:12:31;33.97;;;14.37;;
14817;SDS011;7500;57.698;11.986;2023-01-25T10:15:01;34.80;;;13.60;;
14817;SDS011;7500;57.698;11.986;2023-01-25T10:17:38;34.27;;;15.83;;
14817;SDS011;7500;57.698;11.986;2023-01-25T10:20:16;27.40;;;13.83;;
14817;SDS011;7500;57.698;11.986;2023-01-25T10:22:51;35.80;;;16.17;;
14817;SDS011;7500;57.698;11.986;2023-01-25T10:25:27;34.50;;;14.50;;
14817;SDS011;7500;57.698;11.986;2023-01-25T10:30:54;28.43;;;14.20;;
14817;SDS011;7500;57.698;11.986;2023-01-25T10:33:25;22.77;;;9.87;;
14817;SDS011;7500;57.698;11.986;2023-01-25T10:35:57;29.13;;;15.00;;
14817;SDS011;7500;57.698;11.986;2023-01-25T10:38:29;31.73;;;14.70;;
14817;SDS011;7500;57.698;11.986;2023-01-25T10:41:01;30.90;;;14.87;;
14817;SDS011;7500;57.698;11.986;2023-01-25T10:43:31;36.10;;;16.30;;
14817;SDS011;7500;57.698;11.986;2023-01-25T10:45:58;31.73;;;14.63;;
14817;SDS011;7500;57.698;11.986;2023-01-25T10:48:27;36.80;;;14.33;;
14817;SDS011;7500;57.698;11.986;2023-01-25T10:50:59;34.87;;;15.10;;
14817;SDS011;7500;57.698;11.986;2023-01-25T10:53:27;35.03;;;15.40;;
14817;SDS011;7500;57.698;11.986;2023-01-25T10:56:17;33.90;;;14.87;;
14817;SDS011;7500;57.698;11.986;2023-01-25T10:58:50;36.17;;;16.37;;
14817;SDS011;7500;57.698;11.986;2023-01-25T11:01:26;36.77;;;16.97;;
14817;SDS011;7500;57.698;11.986;2023-01-25T11:03:54;29.20;;;15.97;;
14817;SDS011;7500;57.698;11.986;2023-01-25T11:06:33;43.50;;;15.47;;
14817;SDS011;7500;57.698;11.986;2023-01-25T11:09:05;31.60;;;14.70;;
14817;SDS011;7500;57.698;11.986;2023-01-25T11:12:16;34.43;;;15.20;;
14817;SDS011;7500;57.698;11.986;2023-01-25T11:14:45;33.07;;;15.03;;
14817;SDS011;7500;57.698;11.986;2023-01-25T11:17:24;28.87;;;14.40;;
14817;SDS011;7500;57.698;11.986;2023-01-25T11:20:04;26.00;;;12.30;;
14817;SDS011;7500;57.698;11.986;2023-01-25T11:22:33;33.27;;;14.83;;
14817;SDS011;7500;57.698;11.986;2023-01-25T11:27:58;33.83;;;14.67;;
14817;SDS011;7500;57.698;11.986;2023-01-25T11:30:36;30.13;;;13.10;;
14817;SDS011;7500;57.698;11.986;2023-01-25T11:33:07;29.53;;;13.77;;
14817;SDS011;7500;57.698;11.986;2023-01-25T11:35:36;32.03;;;13.17;;
14817;SDS011;7500;57.698;11.986;2023-01-25T11:38:10;29.97;;;14.10;;
14817;SDS011;7500;57.698;11.986;2023-01-25T11:40:40;34.93;;;13.00;;
14817;SDS011;7500;57.698;11.986;2023-01-25T11:43:20;33.13;;;13.90;;
14817;SDS011;7500;57.698;11.986;2023-01-25T11:46:08;31.50;;;13.63;;
14817;SDS011;7500;57.698;11.986;2023-01-25T11:49:01;26.03;;;13.30;;
14817;SDS011;7500;57.698;11.986;2023-01-25T11:51:42;26.03;;;11.87;;
14817;SDS011;7500;57.698;11.986;2023-01-25T11:54:24;54.30;;;15.53;;
14817;SDS011;7500;57.698;11.986;2023-01-25T11:57:03;29.53;;;12.23;;
14817;SDS011;7500;57.698;11.986;2023-01-25T11:59:57;35.40;;;14.77;;
14817;SDS011;7500;57.698;11.986;2023-01-25T12:02:49;46.27;;;15.33;;
14817;SDS011;7500;57.698;11.986;2023-01-25T12:05:27;32.87;;;13.87;;
14817;SDS011;7500;57.698;11.986;2023-01-25T12:08:10;38.43;;;13.57;;
14817;SDS011;7500;57.698;11.986;2023-01-25T12:10:49;26.60;;;12.07;;
14817;SDS011;7500;57.698;11.986;2023-01-25T12:13:26;29.27;;;11.80;;
14817;SDS011;7500;57.698;11.986;2023-01-25T12:16:11;26.90;;;11.53;;
14817;SDS011;7500;57.698;11.986;2023-01-25T12:18:56;21.20;;;9.00;;
14817;SDS011;7500;57.698;11.986;2023-01-25T12:21:44;32.53;;;11.47;;
14817;SDS011;7500;57.698;11.986;2023-01-25T12:24:30;29.33;;;11.60;;
14817;SDS011;7500;57.698;11.986;2023-01-25T12:27:09;29.50;;;11.53;;
14817;SDS011;7500;57.698;11.986;2023-01-25T12:29:47;27.57;;;11.73;;
14817;SDS011;7500;57.698;11.986;2023-01-25T12:32:22;29.53;;;11.70;;
14817;SDS011;7500;57.698;11.986;2023-01-25T12:34:56;31.23;;;11.77;;
14817;SDS011;7500;57.698;11.986;2023-01-25T12:37:31;27.23;;;11.03;;
14817;SDS011;7500;57.698;11.986;2023-01-25T12:40:03;26.13;;;10.10;;
14817;SDS011;7500;57.698;11.986;2023-01-25T12:42:39;25.03;;;9.33;;
14817;SDS011;7500;57.698;11.986;2023-01-25T12:45:13;22.87;;;9.23;;
14817;SDS011;7500;57.698;11.986;2023-01-25T12:47:45;24.40;;;9.70;;
14817;SDS011;7500;57.698;11.986;2023-01-25T12:50:17;25.23;;;10.13;;
14817;SDS011;7500;57.698;11.986;2023-01-25T12:52:49;26.73;;;9.83;;
14817;SDS011;7500;57.698;11.986;2023-01-25T12:55:19;26.83;;;10.60;;
14817;SDS011;7500;57.698;11.986;2023-01-25T12:57:48;21.77;;;8.43;;
14817;SDS011;7500;57.698;11.986;2023-01-25T13:00:23;23.13;;;9.17;;
14817;SDS011;7500;57.698;11.986;2023-01-25T13:03:02;26.23;;;10.23;;
14817;SDS011;7500;57.698;11.986;2023-01-25T13:05:37;25.10;;;9.10;;
14817;SDS011;7500;57.698;11.986;2023-01-25T13:08:16;21.13;;;8.50;;
14817;SDS011;7500;57.698;11.986;2023-01-25T13:10:48;23.43;;;9.67;;
14817;SDS011;7500;57.698;11.986;2023-01-25T13:13:19;31.47;;;9.77;;
14817;SDS011;7500;57.698;11.986;2023-01-25T13:15:49;26.53;;;9.93;;
14817;SDS011;7500;57.698;11.986;2023-01-25T13:18:37;24.00;;;9.27;;
14817;SDS011;7500;57.698;11.986;2023-01-25T13:21:07;30.50;;;9.33;;
14817;SDS011;7500;57.698;11.986;2023-01-25T13:23:37;28.13;;;9.57;;
14817;SDS011;7500;57.698;11.986;2023-01-25T13:29:06;23.60;;;8.50;;
14817;SDS011;7500;57.698;11.986;2023-01-25T13:35:36;22.87;;;8.90;;
14817;SDS011;7500;57.698;11.986;2023-01-25T13:38:31;23.60;;;9.03;;
14817;SDS011;7500;57.698;11.986;2023-01-25T13:41:01;21.03;;;8.67;;
14817;SDS011;7500;57.698;11.986;2023-01-25T13:43:36;27.10;;;9.17;;
14817;SDS011;7500;57.698;11.986;2023-01-25T13:46:05;19.20;;;8.17;;
14817;SDS011;7500;57.698;11.986;2023-01-25T13:48:34;28.33;;;9.63;;
14817;SDS011;7500;57.698;11.986;2023-01-25T13:51:10;31.10;;;11.10;;
14817;SDS011;7500;57.698;11.986;2023-01-25T13:53:42;31.77;;;11.37;;
14817;SDS011;7500;57.698;11.986;2023-01-25T13:56:23;42.00;;;13.17;;
14817;SDS011;7500;57.698;11.986;2023-01-25T13:58:52;37.37;;;12.57;;
14817;SDS011;7500;57.698;11.986;2023-01-25T14:01:19;31.20;;;10.90;;
14817;SDS011;7500;57.698;11.986;2023-01-25T14:03:48;39.90;;;14.50;;
14817;SDS011;7500;57.698;11.986;2023-01-25T14:06:18;46.77;;;13.63;;
14817;SDS011;7500;57.698;11.986;2023-01-25T14:08:48;45.07;;;14.47;;
14817;SDS011;7500;57.698;11.986;2023-01-25T14:11:17;44.97;;;14.33;;
14817;SDS011;7500;57.698;11.986;2023-01-25T14:13:54;37.47;;;13.87;;
14817;SDS011;7500;57.698;11.986;2023-01-25T14:16:22;51.37;;;15.63;;
14817;SDS011;7500;57.698;11.986;2023-01-25T14:18:51;35.30;;;11.63;;
14817;SDS011;7500;57.698;11.986;2023-01-25T14:21:20;42.73;;;15.07;;
14817;SDS011;7500;57.698;11.986;2023-01-25T14:23:48;51.23;;;15.80;;
14817;SDS011;7500;57.698;11.986;2023-01-25T14:26:20;50.80;;;15.20;;
14817;SDS011;7500;57.698;11.986;2023-01-25T14:28:49;54.40;;;15.50;;
14817;SDS011;7500;57.698;11.986;2023-01-25T14:31:20;49.53;;;15.00;;
14817;SDS011;7500;57.698;11.986;2023-01-25T14:33:49;65.53;;;16.40;;
14817;SDS011;7500;57.698;11.986;2023-01-25T14:36:25;59.37;;;15.37;;
14817;SDS011;7500;57.698;11.986;2023-01-25T14:38:53;51.20;;;15.50;;
14817;SDS011;7500;57.698;11.986;2023-01-25T14:41:23;62.23;;;15.47;;
14817;SDS011;7500;57.698;11.986;2023-01-25T14:43:53;64.17;;;16.37;;
14817;SDS011;7500;57.698;11.986;2023-01-25T14:46:26;54.90;;;15.70;;
14817;SDS011;7500;57.698;11.986;2023-01-25T14:49:07;47.10;;;14.67;;
14817;SDS011;7500;57.698;11.986;2023-01-25T14:51:42;42.00;;;13.77;;
14817;SDS011;7500;57.698;11.986;2023-01-25T14:54:14;63.70;;;15.00;;